Terminal Aerodrome Forecast
Issued by NWS

Current Version | Previous Version | Graphics & Text | Print | Product List | Glossary On
Versions: 1 2 3 4 5 6 7 8 9 10 11 12 13 14 15 16 17 18 19
000
FTUS41 KPBZ 132320
TAFMGW
TAF
KMGW 132320Z 1400/1424 15007KT P6SM VCSH BKN050
     FM140200 17007KT 3SM -SN OVC035
     FM140400 21008KT 2SM -SN OVC015
     FM140900 29008KT P6SM VCSH OVC015
     FM141400 32008KT P6SM BKN025
     FM141800 32008KT P6SM BKN035=

USA.gov is the U.S. government's official web portal to all federal, state and local government web resources and services.